Time;durP1;ratioP1;P1;durP2;ratioP2;P2;SDS_P1;SDS_P2;PMS_P1;PMS_P2;Temp;Humidity;BMP_temperature;BMP_pressure;BME280_temperature;BME280_humidity;BME280_pressure;Samples;Min_cycle;Max_cycle;Signal;HPM_P1;HPM_P2
2021/08/22 00:01:09;;;;;;;10.38;4.38;;;15.30;99.90;;;;;;5121987;28;19916;-61
2021/08/22 00:03:34;;;;;;;;;;;15.20;99.90;;;;;;5122334;27;20669;-62
2021/08/22 00:06:00;;;;;;;8.23;4.20;;;15.20;99.90;;;;;;5123473;28;20055;-61
2021/08/22 00:08:26;;;;;;;;;;;15.30;99.90;;;;;;5124085;28;20521;-59
2021/08/22 00:10:51;;;;;;;9.52;4.75;;;15.30;99.90;;;;;;5123569;28;19955;-61
2021/08/22 00:13:17;;;;;;;;;;;15.30;99.90;;;;;;5123819;28;20039;-61
2021/08/22 00:15:43;;;;;;;6.97;4.38;;;15.30;99.90;;;;;;5123247;27;19926;-61
2021/08/22 00:18:09;;;;;;;8.18;4.43;;;15.30;99.90;;;;;;5113453;28;20307;-61
2021/08/22 00:20:34;;;;;;;;;;;15.30;99.90;;;;;;5110046;28;20609;-61
2021/08/22 00:23:00;;;;;;;8.45;4.93;;;15.30;99.90;;;;;;5105073;28;19916;-61
2021/08/22 00:25:25;;;;;;;;;;;15.30;99.90;;;;;;5089613;28;20047;-61
2021/08/22 00:27:51;;;;;;;12.55;4.55;;;15.30;99.90;;;;;;5088968;28;19927;-61
2021/08/22 00:30:16;;;;;;;;;;;15.30;99.90;;;;;;5086493;28;20502;-61
2021/08/22 00:32:42;;;;;;;9.75;3.92;;;15.30;99.90;;;;;;5075306;28;19927;-61
2021/08/22 00:35:08;;;;;;;;;;;15.30;99.90;;;;;;5080748;28;20050;-61
2021/08/22 00:37:33;;;;;;;11.60;3.95;;;15.30;99.90;;;;;;5089045;28;19922;-60
2021/08/22 00:39:59;;;;;;;;;;;15.30;99.90;;;;;;5089100;28;20765;-61
2021/08/22 00:42:30;;;;;;;4.50;3.20;;;15.30;99.90;;;;;;5088880;28;20299;-61
2021/08/22 00:44:55;;;;;;;10.65;3.92;;;15.30;99.90;;;;;;5083770;28;20044;-61
2021/08/22 00:47:21;;;;;;;;;;;15.30;99.90;;;;;;5076421;28;20067;-61
2021/08/22 00:49:46;;;;;;;7.93;3.80;;;15.30;99.90;;;;;;5068445;28;20252;-61
2021/08/22 00:52:12;;;;;;;;;;;15.40;99.90;;;;;;5068864;28;20041;-61
2021/08/22 00:54:41;;;;;;;7.35;3.70;;;15.40;99.90;;;;;;5068587;28;19922;-61
2021/08/22 00:57:06;;;;;;;6.85;4.32;;;15.40;99.90;;;;;;5068260;28;20049;-61
2021/08/22 00:59:32;;;;;;;;;;;15.40;99.90;;;;;;5068430;28;20116;-61
2021/08/22 01:01:59;;;;;;;25.92;4.13;;;15.40;99.90;;;;;;5067979;28;20384;-61
2021/08/22 01:04:56;;;;;;;5.93;4.05;;;15.30;99.90;;;;;;5079571;28;20043;-61
2021/08/22 01:07:27;;;;;;;10.95;4.03;;;15.40;99.90;;;;;;5086623;28;20052;-61
2021/08/22 01:09:53;;;;;;;10.27;4.28;;;15.40;99.90;;;;;;5086583;28;20100;-61
2021/08/22 01:12:34;;;;;;;;;;;15.40;99.90;;;;;;5088561;28;20040;-61
2021/08/22 01:15:05;;;;;;;10.65;3.60;;;15.50;99.90;;;;;;5088361;28;19931;-61
2021/08/22 01:17:34;;;;;;;12.25;4.70;;;15.40;99.90;;;;;;5086020;28;20051;-61
2021/08/22 01:19:59;;;;;;;9.55;4.18;;;15.30;99.90;;;;;;5086717;28;20105;-61
2021/08/22 01:22:26;;;;;;;;;;;15.30;99.90;;;;;;5088032;28;20216;-61
2021/08/22 01:24:54;;;;;;;5.43;3.88;;;15.30;99.90;;;;;;5087719;28;20012;-61
2021/08/22 01:27:21;;;;;;;8.90;4.63;;;15.40;99.90;;;;;;5087930;28;20047;-61
2021/08/22 01:29:56;;;;;;;7.88;4.20;;;15.30;99.90;;;;;;5086918;28;20544;-61
2021/08/22 01:32:22;;;;;;;19.40;4.60;;;15.30;99.90;;;;;;5085783;28;20040;-61
2021/08/22 01:34:47;;;;;;;;;;;15.30;99.90;;;;;;5088192;28;20044;-61
2021/08/22 01:37:14;;;;;;;10.13;3.78;;;15.40;99.90;;;;;;5087931;28;19934;-61
2021/08/22 01:39:42;;;;;;;5.78;3.83;;;15.40;99.90;;;;;;5087662;28;20040;-61
2021/08/22 01:42:09;;;;;;;8.07;4.05;;;15.40;99.90;;;;;;5086136;28;20032;-61
2021/08/22 01:44:37;;;;;;;8.73;4.57;;;15.40;99.90;;;;;;5087683;28;20040;-61
2021/08/22 01:47:09;;;;;;;8.35;4.00;;;15.50;99.90;;;;;;5102719;28;20043;-61
2021/08/22 01:49:35;;;;;;;8.95;4.75;;;15.50;99.90;;;;;;5107471;28;20098;-61
2021/08/22 01:52:01;;;;;;;10.00;4.43;;;15.60;99.90;;;;;;5108007;28;20655;-61
2021/08/22 01:54:27;;;;;;;6.43;4.13;;;15.60;99.90;;;;;;5107467;28;20118;-61
2021/08/22 01:56:53;;;;;;;;;;;15.60;99.90;;;;;;5106665;28;20131;-61
2021/08/22 01:59:18;;;;;;;10.43;4.30;;;15.70;99.90;;;;;;5104837;28;19916;-62
2021/08/22 02:01:44;;;;;;;;;;;15.70;99.90;;;;;;5101178;28;20856;-61
2021/08/22 02:04:29;;;;;;;11.63;4.60;;;15.70;99.90;;;;;;5107381;28;20405;-61
2021/08/22 02:07:12;;;;;;;9.15;4.32;;;15.70;99.90;;;;;;5107134;28;20108;-61
2021/08/22 02:10:13;;;;;;;12.80;5.47;;;15.70;99.90;;;;;;5106985;28;20095;-61
2021/08/22 02:12:39;;;;;;;9.48;5.90;;;15.80;99.90;;;;;;5102304;28;20236;-61
2021/08/22 02:15:15;;;;;;;7.85;5.53;;;15.70;99.90;;;;;;5107714;28;20073;-61
2021/08/22 02:18:02;;;;;;;10.52;6.18;;;15.80;99.90;;;;;;5107667;28;20044;-61
2021/08/22 02:20:29;;;;;;;13.52;6.72;;;16.00;99.90;;;;;;5108061;28;20046;-60
2021/08/22 02:22:55;;;;;;;21.80;8.20;;;16.10;99.90;;;;;;5107178;28;20107;-61
2021/08/22 02:25:21;;;;;;;18.92;6.18;;;16.00;99.90;;;;;;5107570;28;20050;-60
2021/08/22 02:27:47;;;;;;;;;;;16.00;99.90;;;;;;5108355;28;20043;-61
2021/08/22 02:30:14;;;;;;;11.25;5.38;;;15.90;99.90;;;;;;5107294;28;20375;-60
2021/08/22 02:32:40;;;;;;;8.73;4.50;;;15.90;99.90;;;;;;5105789;28;20421;-60
2021/08/22 02:35:06;;;;;;;8.15;3.60;;;15.90;99.90;;;;;;5107260;28;20047;-61
2021/08/22 02:37:32;;;;;;;6.53;3.53;;;15.90;99.90;;;;;;5107590;28;20039;-61
2021/08/22 02:39:57;;;;;;;;;;;15.90;99.90;;;;;;5107340;28;20046;-61
2021/08/22 02:42:24;;;;;;;9.43;3.50;;;15.90;99.90;;;;;;5105828;28;19922;-61
2021/08/22 02:44:49;;;;;;;7.72;3.30;;;15.90;99.90;;;;;;5106897;28;20126;-61
2021/08/22 02:47:15;;;;;;;;;;;15.90;99.90;;;;;;5106899;28;20139;-61
2021/08/22 02:49:42;;;;;;;9.60;2.67;;;15.80;99.90;;;;;;5107443;28;19980;-61
2021/08/22 02:52:08;;;;;;;6.85;2.85;;;15.90;99.90;;;;;;5107114;28;20130;-61
2021/08/22 02:54:34;;;;;;;9.93;2.95;;;15.90;99.90;;;;;;5107852;28;20051;-61
2021/08/22 02:56:59;;;;;;;;;;;15.90;99.90;;;;;;5107601;28;20048;-61
2021/08/22 02:59:25;;;;;;;7.68;2.10;;;15.80;99.90;;;;;;5086418;28;19916;-61
2021/08/22 03:01:50;;;;;;;;;;;15.90;99.90;;;;;;5072617;28;20634;-61
2021/08/22 03:04:16;;;;;;;5.47;2.10;;;15.90;99.90;;;;;;5070341;28;19920;-61
2021/08/22 03:06:41;;;;;;;;;;;15.90;99.90;;;;;;5086733;28;20119;-61
2021/08/22 03:09:07;;;;;;;5.45;2.17;;;15.90;99.90;;;;;;5085444;28;19930;-61
2021/08/22 03:11:32;;;;;;;;;;;15.80;99.90;;;;;;5077734;28;20132;-61
2021/08/22 03:13:58;;;;;;;6.10;2.20;;;15.80;99.90;;;;;;5066448;28;20011;-61
2021/08/22 03:16:24;;;;;;;;;;;15.80;99.90;;;;;;5066619;28;20466;-61
2021/08/22 03:18:49;;;;;;;6.70;3.22;;;15.80;99.90;;;;;;5083435;28;20334;-61
2021/08/22 03:21:15;;;;;;;;;;;15.80;99.90;;;;;;5087444;28;20036;-61
2021/08/22 03:23:40;;;;;;;4.40;2.13;;;15.80;99.90;;;;;;5087303;28;19930;-61
2021/08/22 03:26:06;;;;;;;;;;;15.70;99.90;;;;;;5087380;28;20040;-61
2021/08/22 03:28:32;;;;;;;11.68;2.20;;;15.80;99.90;;;;;;5086499;28;20319;-61
2021/08/22 03:30:57;;;;;;;;;;;15.70;99.90;;;;;;5086879;28;20088;-61
2021/08/22 03:33:23;;;;;;;3.10;1.40;;;15.80;99.90;;;;;;5084471;28;20018;-61
2021/08/22 03:35:48;;;;;;;;;;;15.70;99.90;;;;;;5087169;28;20499;-61
2021/08/22 03:38:14;;;;;;;5.68;1.33;;;15.70;99.90;;;;;;5086386;28;19916;-61
2021/08/22 03:40:40;;;;;;;;;;;15.70;99.90;;;;;;5087180;28;20037;-61
2021/08/22 03:43:06;;;;;;;7.03;2.20;;;15.70;99.90;;;;;;5086863;28;19923;-62
2021/08/22 03:45:31;;;;;;;5.63;1.60;;;15.70;99.90;;;;;;5089354;28;20032;-62
2021/08/22 03:47:57;;;;;;;;;;;15.60;99.90;;;;;;5107685;28;20044;-61
2021/08/22 03:50:23;;;;;;;1.95;1.48;;;15.60;99.90;;;;;;5106548;28;19916;-61
2021/08/22 03:52:51;;;;;;;;;;;15.50;99.90;;;;;;5109199;28;20088;-62
2021/08/22 03:55:17;;;;;;;2.88;1.60;;;15.50;99.90;;;;;;5110741;27;19911;-60
2021/08/22 03:57:42;;;;;;;;;;;15.50;99.90;;;;;;5111129;28;20606;-61
2021/08/22 04:00:08;;;;;;;2.13;1.60;;;15.50;99.90;;;;;;5110053;28;19923;-60
2021/08/22 04:02:34;;;;;;;3.95;1.70;;;15.50;99.90;;;;;;5109629;28;20039;-60
2021/08/22 04:05:01;;;;;;;;;;;15.50;99.90;;;;;;5111341;28;20035;-60
2021/08/22 04:07:28;;;;;;;5.25;1.55;;;15.50;99.90;;;;;;5107063;28;19920;-60
2021/08/22 04:09:54;;;;;;;3.72;1.98;;;15.50;99.90;;;;;;5109756;28;20040;-61
2021/08/22 04:12:20;;;;;;;;;;;15.50;99.90;;;;;;5110918;27;20047;-60
2021/08/22 04:14:45;;;;;;;6.53;2.05;;;15.40;99.90;;;;;;5110379;28;19933;-60
2021/08/22 04:17:11;;;;;;;;;;;15.50;99.90;;;;;;5110081;28;20059;-60
2021/08/22 04:19:36;;;;;;;3.40;1.83;;;15.50;99.90;;;;;;5110291;28;19920;-60
2021/08/22 04:22:02;;;;;;;8.40;2.20;;;15.50;99.90;;;;;;5110116;28;20119;-60
2021/08/22 04:24:28;;;;;;;;;;;15.40;99.90;;;;;;5110436;28;20035;-61
2021/08/22 04:26:54;;;;;;;4.95;1.95;;;15.40;99.90;;;;;;5109974;28;20446;-61
2021/08/22 04:29:19;;;;;;;;;;;15.40;99.90;;;;;;5109981;28;20096;-61
2021/08/22 04:31:45;;;;;;;3.40;2.10;;;15.40;99.90;;;;;;5106304;27;19973;-61
2021/08/22 04:34:10;;;;;;;;;;;15.40;99.90;;;;;;5110266;28;20038;-61
2021/08/22 04:36:36;;;;;;;6.32;2.40;;;15.40;99.90;;;;;;5109366;28;19915;-62
2021/08/22 04:39:01;;;;;;;;;;;15.40;99.90;;;;;;5108785;28;20047;-61
2021/08/22 04:41:27;;;;;;;3.60;1.83;;;15.40;99.90;;;;;;5109886;28;20018;-61
2021/08/22 04:43:53;;;;;;;;;;;15.40;99.90;;;;;;5107253;28;20074;-61
2021/08/22 04:46:20;;;;;;;4.22;1.88;;;15.50;99.90;;;;;;5098146;28;20492;-61
2021/08/22 04:48:45;;;;;;;3.20;2.05;;;15.40;99.90;;;;;;5088696;28;20512;-60
2021/08/22 04:51:11;;;;;;;;;;;15.40;99.90;;;;;;5089544;28;20047;-61
2021/08/22 04:53:36;;;;;;;4.53;2.05;;;15.50;99.90;;;;;;5089172;28;19916;-61
2021/08/22 04:56:02;;;;;;;;;;;15.50;99.90;;;;;;5089593;28;20080;-61
2021/08/22 04:58:27;;;;;;;8.45;2.20;;;15.50;99.90;;;;;;5086263;28;20015;-61
2021/08/22 05:00:53;;;;;;;;;;;15.50;99.90;;;;;;5074642;28;20100;-61
2021/08/22 05:03:18;;;;;;;2.75;1.80;;;15.50;99.90;;;;;;5089282;28;19916;-61
2021/08/22 05:05:44;;;;;;;;;;;15.50;99.90;;;;;;5089214;28;20101;-61
2021/08/22 05:08:09;;;;;;;3.78;2.50;;;15.50;99.90;;;;;;5099941;28;19915;-60
2021/08/22 05:10:35;;;;;;;;;;;15.50;99.90;;;;;;5109787;28;20036;-60
2021/08/22 05:13:01;;;;;;;3.63;2.22;;;15.60;99.90;;;;;;5109191;28;20009;-61
2021/08/22 05:15:26;;;;;;;;;;;15.60;99.90;;;;;;5106783;28;20047;-61
2021/08/22 05:17:52;;;;;;;3.85;2.65;;;15.60;99.90;;;;;;5088830;28;19916;-61
2021/08/22 05:20:17;;;;;;;;;;;15.50;99.90;;;;;;5088842;28;20610;-61
2021/08/22 05:22:43;;;;;;;5.68;3.05;;;15.60;99.90;;;;;;5088246;28;19916;-61
2021/08/22 05:25:08;;;;;;;;;;;15.60;99.90;;;;;;5088865;28;20098;-61
2021/08/22 05:27:34;;;;;;;5.38;3.70;;;15.60;99.90;;;;;;5088431;28;20631;-61
2021/08/22 05:29:59;;;;;;;;;;;15.60;99.90;;;;;;5088493;28;20067;-62
2021/08/22 05:32:25;;;;;;;5.57;4.15;;;15.60;99.90;;;;;;5087903;28;19943;-61
2021/08/22 05:34:50;;;;;;;;;;;15.60;99.90;;;;;;5088904;28;20040;-62
2021/08/22 05:37:16;;;;;;;10.45;5.97;;;15.60;99.90;;;;;;5086423;28;20449;-61
2021/08/22 05:39:42;;;;;;;8.60;5.60;;;15.70;99.90;;;;;;5088068;28;20048;-61
2021/08/22 05:42:08;;;;;;;;;;;15.60;99.90;;;;;;5087864;28;20040;-64
2021/08/22 05:44:34;;;;;;;11.07;6.78;;;15.70;99.90;;;;;;5088365;28;19920;-61
2021/08/22 05:47:00;;;;;;;9.18;6.72;;;15.70;99.90;;;;;;5087305;28;20126;-63
2021/08/22 05:49:26;;;;;;;;;;;15.70;99.90;;;;;;5086854;28;20072;-62
2021/08/22 05:51:51;;;;;;;10.52;7.65;;;15.70;99.90;;;;;;5087739;28;19916;-60
2021/08/22 05:54:17;;;;;;;18.08;7.88;;;15.70;99.90;;;;;;5087869;28;20063;-61
2021/08/22 05:56:43;;;;;;;9.95;7.50;;;15.70;99.90;;;;;;5088100;28;20082;-61
2021/08/22 05:59:08;;;;;;;;;;;15.80;99.90;;;;;;5087707;28;20036;-61
2021/08/22 06:01:35;;;;;;;11.20;8.07;;;15.70;99.90;;;;;;5086580;28;19920;-61
2021/08/22 06:04:00;;;;;;;14.95;9.48;;;15.70;99.90;;;;;;5086512;28;20051;-61
2021/08/22 06:06:26;;;;;;;;;;;15.80;99.90;;;;;;5086452;28;20044;-62
2021/08/22 06:08:51;;;;;;;11.52;7.25;;;15.80;99.90;;;;;;5085831;28;19916;-62
2021/08/22 06:11:17;;;;;;;;;;;15.80;99.90;;;;;;5086819;28;20043;-62
2021/08/22 06:13:42;;;;;;;11.38;7.97;;;15.80;99.90;;;;;;5087599;28;20394;-62
2021/08/22 06:16:08;;;;;;;;;;;15.90;99.90;;;;;;5086196;28;20043;-61
2021/08/22 06:18:33;;;;;;;15.55;10.00;;;15.80;99.90;;;;;;5086370;28;20415;-62
2021/08/22 06:20:59;;;;;;;;;;;15.80;99.90;;;;;;5088041;28;20089;-61
2021/08/22 06:23:24;;;;;;;15.23;10.77;;;15.80;99.90;;;;;;5086822;28;19916;-62
2021/08/22 06:25:50;;;;;;;;;;;15.90;99.90;;;;;;5087857;28;20392;-61
2021/08/22 06:28:15;;;;;;;13.68;9.88;;;15.80;99.90;;;;;;5086707;28;20371;-63
2021/08/22 06:30:42;;;;;;;;;;;15.90;99.90;;;;;;5087107;28;20035;-61
2021/08/22 06:33:08;;;;;;;16.67;11.43;;;15.90;99.90;;;;;;5087360;28;19920;-61
2021/08/22 06:35:34;;;;;;;17.00;11.35;;;15.90;99.90;;;;;;5086636;28;20040;-64
2021/08/22 06:37:59;;;;;;;;;;;16.00;99.90;;;;;;5082192;28;20044;-62
2021/08/22 06:40:25;;;;;;;16.25;10.30;;;15.90;99.90;;;;;;5082919;28;19919;-63
2021/08/22 06:42:50;;;;;;;16.80;11.32;;;16.00;99.90;;;;;;5083939;28;20732;-63
2021/08/22 06:45:16;;;;;;;16.85;11.27;;;16.00;99.90;;;;;;5088202;28;20040;-63
2021/08/22 06:47:42;;;;;;;17.52;10.90;;;16.10;99.90;;;;;;5087305;28;20131;-63
2021/08/22 06:50:08;;;;;;;17.40;11.77;;;16.10;99.90;;;;;;5086969;28;20039;-64
2021/08/22 06:52:33;;;;;;;;;;;16.10;99.90;;;;;;5086962;28;20040;-60
2021/08/22 06:54:59;;;;;;;18.85;11.65;;;16.10;99.90;;;;;;5087276;28;19916;-61
2021/08/22 06:57:24;;;;;;;;;;;16.20;99.90;;;;;;5083887;28;20496;-61
2021/08/22 06:59:50;;;;;;;20.25;12.88;;;16.10;99.90;;;;;;5066759;28;20342;-61
2021/08/22 07:02:17;;;;;;;;;;;16.10;99.90;;;;;;5067214;28;20055;-61
2021/08/22 07:04:42;;;;;;;24.33;13.38;;;16.10;99.90;;;;;;5066577;28;19924;-62
2021/08/22 07:07:08;;;;;;;;;;;16.10;99.90;;;;;;5071538;28;20044;-61
2021/08/22 07:09:33;;;;;;;15.65;10.68;;;16.10;99.90;;;;;;5080572;28;19924;-61
2021/08/22 07:11:59;;;;;;;;;;;16.20;99.90;;;;;;5058821;28;20039;-61
2021/08/22 07:14:24;;;;;;;16.92;12.23;;;16.10;99.90;;;;;;5106757;28;20154;-61
2021/08/22 07:16:50;;;;;;;;;;;16.10;99.90;;;;;;5106921;28;20134;-61
2021/08/22 07:19:16;;;;;;;22.13;12.68;;;16.10;99.90;;;;;;5107053;28;19937;-61
2021/08/22 07:21:41;;;;;;;;;;;16.20;99.90;;;;;;5071329;28;20492;-61
2021/08/22 07:24:07;;;;;;;20.25;12.43;;;16.10;99.90;;;;;;5045382;28;19956;-61
2021/08/22 07:26:33;;;;;;;;;;;16.10;99.90;;;;;;5087211;28;20483;-61
2021/08/22 07:28:58;;;;;;;20.38;12.88;;;16.20;99.90;;;;;;5082836;28;19916;-62
2021/08/22 07:31:24;;;;;;;24.42;14.68;;;16.20;99.90;;;;;;5080861;28;20621;-61
2021/08/22 07:33:49;;;;;;;;;;;16.10;99.90;;;;;;5090994;28;20028;-61
2021/08/22 07:36:15;;;;;;;20.30;13.70;;;16.10;99.90;;;;;;5090970;28;19916;-62
2021/08/22 07:38:40;;;;;;;;;;;16.20;99.90;;;;;;5090428;28;20086;-62
2021/08/22 07:41:06;;;;;;;21.73;14.50;;;16.20;99.90;;;;;;5090304;28;20711;-62
2021/08/22 07:43:32;;;;;;;;;;;16.20;99.90;;;;;;5091251;28;20530;-61
2021/08/22 07:45:58;;;;;;;22.23;14.65;;;16.20;99.90;;;;;;5096852;28;19920;-61
2021/08/22 07:48:24;;;;;;;29.77;16.63;;;16.20;99.90;;;;;;5110973;28;20054;-61
2021/08/22 07:50:49;;;;;;;;;;;16.20;99.90;;;;;;5111490;28;20043;-62
2021/08/22 07:53:16;;;;;;;22.73;15.50;;;16.10;99.90;;;;;;5110509;28;19926;-61
2021/08/22 07:55:42;;;;;;;24.95;14.75;;;16.10;99.90;;;;;;5111346;28;20804;-61
2021/08/22 07:58:08;;;;;;;;;;;16.20;99.90;;;;;;5111223;28;20043;-63
2021/08/22 08:00:33;;;;;;;25.10;15.05;;;16.20;99.90;;;;;;5110848;28;20014;-61
2021/08/22 08:02:59;;;;;;;;;;;16.20;99.90;;;;;;5111037;28;20491;-61
2021/08/22 08:05:24;;;;;;;23.58;15.15;;;16.20;99.90;;;;;;5111313;28;19963;-60
2021/08/22 08:07:50;;;;;;;;;;;16.30;99.90;;;;;;5109449;28;20384;-61
2021/08/22 08:10:17;;;;;;;22.10;13.48;;;16.40;99.90;;;;;;5109916;28;20382;-61
2021/08/22 08:12:43;;;;;;;26.30;15.35;;;16.40;99.90;;;;;;5108207;28;20081;-61
2021/08/22 08:15:09;;;;;;;;;;;16.90;99.90;;;;;;5102348;27;20043;-62
2021/08/22 08:17:35;;;;;;;23.40;15.20;;;17.30;99.90;;;;;;5110498;28;20091;-61
2021/08/22 08:20:00;;;;;;;24.80;15.30;;;17.30;99.90;;;;;;5109633;28;20051;-61
2021/08/22 08:22:26;;;;;;;;;;;17.20;99.90;;;;;;5105886;28;20651;-61
2021/08/22 08:24:52;;;;;;;25.65;15.45;;;17.20;99.90;;;;;;5109999;28;20185;-62
2021/08/22 08:27:17;;;;;;;;;;;17.00;99.90;;;;;;5106175;28;20036;-61
2021/08/22 08:29:43;;;;;;;26.13;15.15;;;17.00;99.90;;;;;;5108733;28;19922;-62
2021/08/22 08:32:08;;;;;;;25.42;13.88;;;17.00;99.90;;;;;;5105931;28;20553;-62
2021/08/22 08:34:34;;;;;;;;;;;17.00;99.90;;;;;;5104457;28;20035;-62
2021/08/22 08:37:00;;;;;;;27.05;15.15;;;17.00;99.90;;;;;;5108731;28;19916;-62
2021/08/22 08:39:26;;;;;;;;;;;16.90;99.90;;;;;;5084414;28;20697;-61
2021/08/22 08:41:51;;;;;;;23.83;14.30;;;17.00;99.90;;;;;;5097731;28;19915;-61
2021/08/22 08:44:17;;;;;;;22.85;13.98;;;16.90;99.90;;;;;;5107981;28;20499;-61
2021/08/22 08:46:49;;;;;;;21.25;13.40;;;16.90;99.90;;;;;;5102492;28;20059;-61
2021/08/22 08:49:27;;;;;;;20.80;13.85;;;16.90;99.90;;;;;;5101880;28;20040;-62
2021/08/22 08:51:55;;;;;;;24.58;14.18;;;16.90;99.90;;;;;;5103752;28;20399;-62
2021/08/22 08:54:31;;;;;;;22.45;13.75;;;16.90;99.90;;;;;;5099166;28;20031;-62
2021/08/22 08:57:00;;;;;;;22.13;12.85;;;16.90;99.90;;;;;;5099069;28;20038;-62
2021/08/22 08:59:26;;;;;;;20.48;12.80;;;17.00;99.90;;;;;;5097699;28;20051;-63
2021/08/22 09:01:58;;;;;;;;;;;16.90;99.90;;;;;;5098321;28;20090;-62
2021/08/22 09:04:27;;;;;;;20.90;11.73;;;16.90;99.90;;;;;;5109578;28;20483;-62
2021/08/22 09:07:30;;;;;;;16.67;11.05;;;16.90;99.90;;;;;;5108335;28;20051;-62
2021/08/22 09:10:16;;;;;;;16.90;11.32;;;17.00;99.90;;;;;;5108634;28;20039;-62
2021/08/22 09:13:12;;;;;;;18.53;11.47;;;17.10;99.90;;;;;;5108938;28;20392;-62
2021/08/22 09:16:00;;;;;;;18.02;11.55;;;17.20;99.90;;;;;;5108862;28;20597;-62
2021/08/22 09:18:44;;;;;;;16.15;10.25;;;17.30;99.90;;;;;;5108388;28;20135;-62
2021/08/22 09:21:47;;;;;;;17.10;10.98;;;17.30;99.90;;;;;;5108744;28;20042;-62
2021/08/22 09:24:31;;;;;;;14.00;9.63;;;17.30;99.90;;;;;;5108736;28;20040;-62
2021/08/22 09:27:47;;;;;;;18.13;10.23;;;17.30;99.90;;;;;;5105887;28;20044;-62
2021/08/22 09:30:31;;;;;;;15.68;9.75;;;17.30;99.90;;;;;;5098075;28;20372;-63
2021/08/22 09:33:15;;;;;;;13.75;8.98;;;17.30;99.90;;;;;;5097453;28;20491;-63
2021/08/22 09:36:02;;;;;;;15.30;9.25;;;17.30;99.90;;;;;;5097970;28;20101;-62
2021/08/22 09:39:05;;;;;;;17.02;9.70;;;17.40;99.90;;;;;;5101863;28;20035;-62
2021/08/22 09:42:08;;;;;;;12.82;8.45;;;17.40;99.90;;;;;;5088582;28;20042;-62
2021/08/22 09:44:43;;;;;;;14.02;8.77;;;17.50;99.90;;;;;;5088678;28;20101;-62
2021/08/22 09:47:47;;;;;;;12.52;7.93;;;17.50;99.90;;;;;;5087896;28;20097;-62
2021/08/22 09:50:49;;;;;;;12.88;8.55;;;17.60;99.90;;;;;;5081519;23;20121;-62
2021/08/22 09:53:53;;;;;;;12.45;7.32;;;17.70;99.90;;;;;;5059665;28;20467;-63
2021/08/22 09:56:56;;;;;;;20.15;7.10;;;17.60;99.90;;;;;;5068538;28;20090;-62
2021/08/22 09:59:30;;;;;;;7.75;5.68;;;17.70;99.90;;;;;;5067728;28;20040;-62
2021/08/22 10:02:21;;;;;;;11.23;6.82;;;17.80;99.90;;;;;;5067183;28;20037;-62
2021/08/22 10:04:52;;;;;;;7.55;5.82;;;17.80;99.90;;;;;;5069111;28;20036;-63
2021/08/22 10:07:36;;;;;;;10.27;6.18;;;17.80;99.90;;;;;;5060366;23;20036;-62
2021/08/22 10:10:12;;;;;;;10.55;6.78;;;17.90;99.90;;;;;;5066861;28;20051;-63
2021/08/22 10:12:38;;;;;;;10.10;6.85;;;17.90;99.90;;;;;;5067796;28;20068;-65
2021/08/22 10:15:04;;;;;;;;;;;17.90;99.90;;;;;;5068192;28;20086;-64
2021/08/22 10:17:30;;;;;;;9.43;6.53;;;17.90;99.90;;;;;;5067240;28;20353;-64
2021/08/22 10:19:55;;;;;;;;;;;17.80;99.90;;;;;;5067674;28;20124;-65
2021/08/22 10:22:29;;;;;;;12.80;8.10;;;17.90;99.90;;;;;;5067814;28;19917;-64
2021/08/22 10:25:02;;;;;;;10.32;6.75;;;17.80;99.90;;;;;;5066618;28;20044;-65
2021/08/22 10:27:31;;;;;;;13.98;8.48;;;17.80;99.90;;;;;;5065829;28;20320;-62
2021/08/22 10:29:58;;;;;;;11.43;7.07;;;17.80;99.90;;;;;;5066165;28;20041;-63
2021/08/22 10:32:24;;;;;;;9.27;6.57;;;17.80;99.90;;;;;;5065635;28;20115;-63
2021/08/22 10:35:12;;;;;;;10.75;6.13;;;17.80;99.90;;;;;;5066269;28;20082;-63
2021/08/22 10:37:39;;;;;;;8.00;5.85;;;17.90;99.90;;;;;;5052969;28;20416;-63
2021/08/22 10:40:23;;;;;;;11.35;6.53;;;17.90;99.90;;;;;;5047709;28;20045;-63
2021/08/22 10:43:09;;;;;;;12.25;6.82;;;17.80;99.90;;;;;;5055844;28;20043;-63
2021/08/22 10:45:47;;;;;;;11.77;6.32;;;17.70;99.90;;;;;;5057503;28;20044;-62
2021/08/22 10:48:24;;;;;;;8.52;6.03;;;17.70;99.90;;;;;;5059599;28;20033;-63
2021/08/22 10:51:07;;;;;;;10.88;7.13;;;17.70;99.90;;;;;;5061637;28;20442;-64
2021/08/22 10:53:38;;;;;;;18.85;14.00;;;17.60;99.90;;;;;;5057603;28;20041;-62
2021/08/22 10:56:22;;;;;;;13.52;9.60;;;17.60;99.90;;;;;;5065039;28;20048;-63
2021/08/22 10:59:01;;;;;;;11.88;8.40;;;17.50;99.90;;;;;;5050853;28;20079;-63
2021/08/22 11:01:28;;;;;;;11.82;8.75;;;17.40;99.90;;;;;;5057964;28;20041;-64
2021/08/22 11:04:12;;;;;;;11.55;7.95;;;17.40;99.90;;;;;;5065566;28;20578;-64
2021/08/22 11:07:10;;;;;;;10.75;7.75;;;17.40;99.90;;;;;;5066064;28;20119;-63
2021/08/22 11:09:41;;;;;;;15.88;11.52;;;17.40;99.90;;;;;;5060867;28;20496;-63
2021/08/22 11:12:29;;;;;;;19.17;14.35;;;17.40;99.90;;;;;;5065907;28;20044;-63
2021/08/22 11:14:57;;;;;;;16.42;10.48;;;17.40;99.90;;;;;;5066441;28;20050;-63
2021/08/22 11:17:23;;;;;;;13.40;9.05;;;17.40;99.90;;;;;;5065307;28;20049;-63
2021/08/22 11:19:49;;;;;;;10.60;7.55;;;17.50;99.90;;;;;;5066215;28;20531;-63
2021/08/22 11:22:25;;;;;;;;;;;17.40;99.90;;;;;;5066570;28;20082;-63
2021/08/22 11:24:51;;;;;;;11.70;7.63;;;17.40;99.90;;;;;;5065903;28;19923;-63
2021/08/22 11:27:22;;;;;;;9.65;7.15;;;17.30;99.90;;;;;;5065786;28;20052;-63
2021/08/22 11:30:09;;;;;;;8.95;7.22;;;17.30;99.90;;;;;;5062467;28;20140;-63
2021/08/22 11:32:36;;;;;;;11.80;6.90;;;17.40;99.90;;;;;;5081312;28;20036;-63
2021/08/22 11:35:15;;;;;;;10.85;6.68;;;17.30;99.90;;;;;;5066408;28;20037;-63
2021/08/22 11:37:42;;;;;;;10.48;6.90;;;17.40;99.90;;;;;;5065865;28;20217;-63
2021/08/22 11:40:16;;;;;;;7.97;5.97;;;17.40;99.90;;;;;;5065176;28;20036;-63
2021/08/22 11:42:50;;;;;;;8.93;6.70;;;17.40;99.90;;;;;;5064859;28;20075;-63
2021/08/22 11:45:18;;;;;;;9.82;6.80;;;17.40;99.90;;;;;;5065231;28;20065;-64
2021/08/22 11:47:44;;;;;;;8.35;6.55;;;17.40;99.90;;;;;;5066100;28;20136;-63
2021/08/22 11:50:12;;;;;;;8.05;6.30;;;17.40;99.90;;;;;;5065457;28;20048;-64
2021/08/22 11:52:42;;;;;;;8.20;6.53;;;17.30;99.90;;;;;;5065832;28;20692;-64
2021/08/22 11:55:09;;;;;;;9.18;6.88;;;17.30;99.90;;;;;;5065167;28;20109;-65
2021/08/22 11:57:35;;;;;;;7.55;6.07;;;17.40;99.90;;;;;;5065905;28;20112;-66
2021/08/22 12:00:04;;;;;;;;;;;17.40;99.90;;;;;;5065136;28;20120;-64
2021/08/22 12:02:30;;;;;;;8.75;5.97;;;17.50;99.90;;;;;;5065681;28;19924;-64
2021/08/22 12:05:13;;;;;;;;;;;17.50;99.90;;;;;;5067115;28;20071;-63
2021/08/22 12:07:44;;;;;;;7.43;5.50;;;17.50;99.90;;;;;;5064304;28;20006;-65
2021/08/22 12:10:24;;;;;;;8.77;6.90;;;17.50;99.90;;;;;;5060073;28;20378;-64
2021/08/22 12:12:49;;;;;;;11.30;7.68;;;17.60;99.90;;;;;;5065604;28;20117;-65
2021/08/22 12:15:15;;;;;;;;;;;17.60;99.90;;;;;;5068894;28;20040;-65
2021/08/22 12:17:40;;;;;;;8.07;5.35;;;17.60;99.90;;;;;;5069281;28;19977;-65
2021/08/22 12:20:22;;;;;;;7.35;5.20;;;17.40;99.90;;;;;;5079970;28;20434;-64
2021/08/22 12:23:06;;;;;;;11.30;5.57;;;17.40;99.90;;;;;;5068820;28;20032;-64
2021/08/22 12:25:34;;;;;;;8.57;5.40;;;17.30;99.90;;;;;;5068735;28;20037;-63
2021/08/22 12:28:20;;;;;;;12.02;5.35;;;17.30;99.90;;;;;;5068680;28;21085;-63
2021/08/22 12:30:47;;;;;;;8.05;5.85;;;17.30;99.90;;;;;;5064240;28;20093;-65
2021/08/22 12:33:35;;;;;;;8.65;4.97;;;17.30;99.90;;;;;;5068867;28;20051;-66
2021/08/22 12:36:22;;;;;;;7.22;4.85;;;17.30;99.90;;;;;;5068727;28;20127;-65
2021/08/22 12:38:58;;;;;;;12.30;7.80;;;17.30;99.90;;;;;;5067902;28;20633;-66
2021/08/22 12:41:36;;;;;;;8.23;6.38;;;17.20;99.90;;;;;;5068100;28;21247;-65
2021/08/22 12:44:05;;;;;;;29.42;9.32;;;17.20;99.90;;;;;;5068733;28;20090;-65
2021/08/22 12:46:33;;;;;;;13.30;6.55;;;17.20;99.90;;;;;;5068548;28;20221;-64
2021/08/22 12:48:59;;;;;;;11.18;5.55;;;17.20;99.90;;;;;;5068499;28;20045;-63
2021/08/22 12:51:25;;;;;;;6.65;4.70;;;17.30;99.90;;;;;;5068083;28;20703;-64
2021/08/22 12:53:53;;;;;;;7.60;5.47;;;17.50;99.90;;;;;;5068224;28;20097;-64
2021/08/22 12:56:18;;;;;;;10.88;5.85;;;17.90;99.90;;;;;;5067471;28;20045;-63
2021/08/22 12:58:44;;;;;;;;;;;18.10;99.90;;;;;;5082452;28;20055;-64
2021/08/22 13:01:09;;;;;;;15.50;5.60;;;18.30;99.90;;;;;;5086646;28;19916;-64
2021/08/22 13:03:35;;;;;;;;;;;18.50;99.90;;;;;;5088357;28;20083;-64
2021/08/22 13:06:01;;;;;;;7.13;5.30;;;18.60;99.90;;;;;;5088736;28;19927;-64
2021/08/22 13:08:26;;;;;;;;;;;18.70;99.90;;;;;;5073465;28;20736;-64
2021/08/22 13:10:52;;;;;;;7.18;3.85;;;18.80;99.90;;;;;;5068884;28;19916;-62
2021/08/22 13:13:17;;;;;;;4.97;3.50;;;18.80;99.90;;;;;;5068467;28;20548;-62
2021/08/22 13:15:43;;;;;;;7.28;4.40;;;18.80;99.90;;;;;;5076358;28;20128;-64
2021/08/22 13:18:09;;;;;;;;;;;18.60;99.90;;;;;;5077980;28;20055;-64